Terminal Aerodrome Forecast
Issued by NWS

Home | Current Version | Previous Version | Text Only | Print | Product List | Glossary On
Versions: 1 2 3 4 5 6 7 8 9 10 11 12 13
000
FTUS42 TJSJ 252330
TAFNCM
TAF
TNCM 252330Z 2600/2624 VRB04KT P6SM FEW022
     FM261300 14008KT P6SM VCSH SCT018 SCT040
     FM262200 10003KT P6SM FEW022 SCT040=

USA.gov is the U.S. government's official web portal to all federal, state and local government web resources and services.